Time;durP1;ratioP1;P1;durP2;ratioP2;P2;SDS_P1;SDS_P2;PMS_P1;PMS_P2;Temp;Humidity;BMP_temperature;BMP_pressure;BME280_temperature;BME280_humidity;BME280_pressure;Samples;Min_cycle;Max_cycle;Signal;HPM_P1;HPM_P2
2022/08/01 00:00:37;;;;;;;8.15;5.63;;;20.60;99.90;;;;;;5051027;28;20053;-69
2022/08/01 00:03:03;;;;;;;7.22;5.50;;;20.60;99.90;;;;;;5050878;28;20040;-69
2022/08/01 00:05:29;;;;;;;8.55;6.10;;;20.50;99.90;;;;;;5050786;28;20021;-69
2022/08/01 00:07:55;;;;;;;10.45;6.03;;;20.60;99.90;;;;;;5051483;28;20575;-70
2022/08/01 00:10:21;;;;;;;13.40;6.38;;;20.50;99.90;;;;;;5050831;28;20021;-69
2022/08/01 00:12:47;;;;;;;11.18;6.38;;;20.50;99.90;;;;;;5051357;28;20028;-69
2022/08/01 00:15:15;;;;;;;9.00;6.68;;;20.60;99.90;;;;;;5051146;28;20033;-70
2022/08/01 00:17:42;;;;;;;11.32;6.10;;;20.50;99.90;;;;;;5050914;28;20037;-69
2022/08/01 00:20:11;;;;;;;9.88;6.45;;;20.50;99.90;;;;;;5050846;28;20028;-68
2022/08/01 00:22:37;;;;;;;;;;;20.50;99.90;;;;;;5033602;28;20036;-69
2022/08/01 00:25:04;;;;;;;8.38;6.00;;;20.50;99.90;;;;;;5050695;28;19919;-69
2022/08/01 00:27:31;;;;;;;9.15;6.25;;;20.50;99.90;;;;;;5050706;28;20024;-69
2022/08/01 00:29:57;;;;;;;8.73;6.28;;;20.50;99.90;;;;;;5067203;22;20053;-81
2022/08/01 00:32:23;;;;;;;10.38;6.55;;;20.50;99.90;;;;;;5030645;28;20021;-81
2022/08/01 00:34:48;;;;;;;10.98;6.97;;;20.50;99.90;;;;;;5030602;28;20079;-81
2022/08/01 00:37:15;;;;;;;10.15;6.78;;;20.50;99.90;;;;;;5033797;28;20501;-81
2022/08/01 00:39:40;;;;;;;9.75;6.60;;;20.50;99.90;;;;;;5034285;28;20030;-81
2022/08/01 00:42:08;;;;;;;10.65;6.55;;;20.50;99.90;;;;;;5034566;28;20036;-81
2022/08/01 00:44:34;;;;;;;11.20;6.82;;;20.50;99.90;;;;;;5034482;28;20370;-81
2022/08/01 00:47:00;;;;;;;10.90;6.53;;;20.50;99.90;;;;;;5034204;28;20026;-81
2022/08/01 00:49:27;;;;;;;10.45;6.97;;;20.50;99.90;;;;;;5034158;28;20543;-81
2022/08/01 00:51:53;;;;;;;8.98;6.32;;;20.50;99.90;;;;;;5034311;28;20038;-81
2022/08/01 00:54:19;;;;;;;10.75;6.90;;;20.50;99.90;;;;;;5034368;28;20026;-81
2022/08/01 00:56:45;;;;;;;8.85;6.70;;;20.50;99.90;;;;;;5034060;28;20029;-81
2022/08/01 00:59:13;;;;;;;13.88;7.38;;;20.50;99.90;;;;;;5034157;28;20033;-81
2022/08/01 01:01:39;;;;;;;12.73;7.03;;;20.40;99.90;;;;;;5034260;28;20072;-81
2022/08/01 01:04:04;;;;;;;10.35;7.47;;;20.40;99.90;;;;;;5034436;28;20060;-81
2022/08/01 01:06:53;;;;;;;10.68;6.80;;;20.40;99.90;;;;;;5033680;28;20040;-81
2022/08/01 01:09:37;;;;;;;;;;;20.40;99.90;;;;;;5005689;28;20176;-81
2022/08/01 01:12:22;;;;;;;11.90;8.40;;;20.40;99.90;;;;;;5034212;28;19935;-81
2022/08/01 01:15:08;;;;;;;10.20;7.00;;;20.40;99.90;;;;;;5034257;28;20030;-81
2022/08/01 01:17:46;;;;;;;11.15;7.63;;;20.40;99.90;;;;;;5034157;28;20034;-81
2022/08/01 01:20:13;;;;;;;8.75;6.00;;;20.40;99.90;;;;;;5033879;28;20044;-81
2022/08/01 01:23:05;;;;;;;10.70;7.40;;;20.40;99.90;;;;;;5034094;28;20105;-81
2022/08/01 01:25:37;;;;;;;12.55;7.38;;;20.40;99.90;;;;;;5034292;28;20300;-81
2022/08/01 01:28:16;;;;;;;15.18;7.47;;;20.40;99.90;;;;;;5033900;28;20056;-81
2022/08/01 01:30:46;;;;;;;12.55;7.38;;;20.40;99.90;;;;;;5015959;28;20072;-81
2022/08/01 01:33:13;;;;;;;12.20;7.65;;;20.40;99.90;;;;;;4999711;28;20043;-81
2022/08/01 01:35:45;;;;;;;10.70;7.38;;;20.30;99.90;;;;;;5033643;28;20171;-81
2022/08/01 01:38:20;;;;;;;11.10;7.47;;;20.30;99.90;;;;;;5033655;28;20780;-81
2022/08/01 01:40:48;;;;;;;11.85;7.18;;;20.30;99.90;;;;;;5033569;28;20038;-81
2022/08/01 01:43:15;;;;;;;11.68;8.43;;;20.30;99.90;;;;;;5033766;28;20049;-81
2022/08/01 01:45:43;;;;;;;14.23;8.60;;;20.30;99.90;;;;;;5015543;28;20468;-81
2022/08/01 01:48:10;;;;;;;14.47;8.60;;;20.30;99.90;;;;;;5033056;28;20056;-81
2022/08/01 01:50:37;;;;;;;12.10;7.80;;;20.30;99.90;;;;;;5033093;28;20836;-81
2022/08/01 01:53:05;;;;;;;13.55;8.20;;;20.30;99.90;;;;;;5033298;28;20025;-81
2022/08/01 01:55:32;;;;;;;11.77;7.68;;;20.30;99.90;;;;;;5033348;28;20120;-81
2022/08/01 01:57:59;;;;;;;11.18;8.05;;;20.20;99.90;;;;;;5033117;28;20045;-81
2022/08/01 02:00:26;;;;;;;12.20;8.30;;;20.30;99.90;;;;;;5032747;28;20116;-81
2022/08/01 02:02:56;;;;;;;12.52;8.43;;;20.30;99.90;;;;;;5033194;28;20102;-81
2022/08/01 02:05:23;;;;;;;14.00;8.75;;;20.30;99.90;;;;;;5015376;28;20086;-81
2022/08/01 02:07:50;;;;;;;12.13;8.55;;;20.30;99.90;;;;;;5015154;28;20026;-81
2022/08/01 02:10:18;;;;;;;10.98;8.43;;;20.30;99.90;;;;;;5032338;28;20135;-81
2022/08/01 02:12:45;;;;;;;16.08;9.52;;;20.30;99.90;;;;;;5033020;28;20025;-81
2022/08/01 02:15:13;;;;;;;15.45;9.15;;;20.30;99.90;;;;;;5032730;28;20044;-81
2022/08/01 02:17:45;;;;;;;18.40;8.93;;;20.30;99.90;;;;;;5032755;28;20025;-81
2022/08/01 02:20:13;;;;;;;13.90;8.82;;;20.30;99.90;;;;;;5032528;28;20033;-81
2022/08/01 02:22:53;;;;;;;13.95;9.10;;;20.30;99.90;;;;;;5032742;28;20478;-81
2022/08/01 02:25:25;;;;;;;14.13;9.35;;;20.30;99.90;;;;;;5032568;28;20037;-81
2022/08/01 02:28:16;;;;;;;17.40;10.98;;;20.30;99.90;;;;;;4998472;28;20505;-81
2022/08/01 02:30:45;;;;;;;14.10;10.27;;;20.30;99.90;;;;;;5032158;28;20032;-81
2022/08/01 02:33:31;;;;;;;16.60;10.52;;;20.30;99.90;;;;;;5032458;28;20033;-81
2022/08/01 02:35:59;;;;;;;18.58;10.23;;;20.30;99.90;;;;;;5032164;28;20042;-81
2022/08/01 02:38:28;;;;;;;16.52;10.00;;;20.30;99.90;;;;;;5014970;28;20051;-81
2022/08/01 02:40:57;;;;;;;;;;;20.30;99.90;;;;;;5032771;28;20064;-81
2022/08/01 02:43:26;;;;;;;15.70;10.57;;;20.30;99.90;;;;;;5014862;28;19935;-81
2022/08/01 02:45:57;;;;;;;18.55;10.05;;;20.30;99.90;;;;;;5032117;28;20073;-82
2022/08/01 02:48:25;;;;;;;12.80;9.07;;;20.30;99.90;;;;;;5032120;28;20112;-81
2022/08/01 02:50:54;;;;;;;16.20;9.80;;;20.30;99.90;;;;;;5014151;28;20033;-81
2022/08/01 02:53:23;;;;;;;19.75;10.80;;;20.30;99.90;;;;;;5032200;28;20029;-82
2022/08/01 02:55:50;;;;;;;16.40;10.30;;;20.30;99.90;;;;;;5014087;28;20029;-81
2022/08/01 02:58:19;;;;;;;15.02;8.85;;;20.30;99.90;;;;;;5013696;28;20029;-81
2022/08/01 03:00:46;;;;;;;17.30;10.50;;;20.30;99.90;;;;;;5031744;28;20025;-81
2022/08/01 03:03:13;;;;;;;17.80;10.15;;;20.30;99.90;;;;;;5031935;28;20108;-81
2022/08/01 03:05:40;;;;;;;14.07;9.45;;;20.30;99.90;;;;;;5031535;28;20065;-81
2022/08/01 03:08:08;;;;;;;18.35;11.38;;;20.30;99.90;;;;;;5014097;28;20552;-81
2022/08/01 03:10:36;;;;;;;17.60;10.50;;;20.30;99.90;;;;;;5031437;28;20040;-81
2022/08/01 03:13:04;;;;;;;13.63;10.35;;;20.30;99.90;;;;;;5013464;28;20397;-81
2022/08/01 03:15:33;;;;;;;22.23;13.25;;;20.30;99.90;;;;;;5031418;28;20037;-81
2022/08/01 03:18:00;;;;;;;15.77;11.57;;;20.30;99.90;;;;;;5031437;28;20076;-81
2022/08/01 03:20:28;;;;;;;21.27;13.15;;;20.30;99.90;;;;;;5031080;28;20125;-81
2022/08/01 03:22:56;;;;;;;16.97;12.70;;;20.30;99.90;;;;;;5031416;28;20021;-81
2022/08/01 03:25:23;;;;;;;20.75;13.98;;;20.30;99.90;;;;;;5031398;28;20440;-81
2022/08/01 03:27:55;;;;;;;20.65;13.65;;;20.30;99.90;;;;;;5031241;28;20025;-81
2022/08/01 03:30:23;;;;;;;22.13;13.27;;;20.30;99.90;;;;;;5030996;28;20608;-81
2022/08/01 03:32:49;;;;;;;20.63;13.38;;;20.30;99.90;;;;;;5031626;28;20075;-81
2022/08/01 03:35:15;;;;;;;18.42;12.63;;;20.30;99.90;;;;;;5031292;28;20509;-81
2022/08/01 03:37:49;;;;;;;22.23;14.25;;;20.30;99.90;;;;;;5031454;28;20029;-81
2022/08/01 03:40:22;;;;;;;18.52;13.40;;;20.20;99.90;;;;;;5013350;28;20025;-81
2022/08/01 03:42:53;;;;;;;21.02;12.65;;;20.30;99.90;;;;;;4997598;28;20037;-81
2022/08/01 03:45:23;;;;;;;21.20;13.90;;;20.20;99.90;;;;;;5031316;28;20037;-81
2022/08/01 03:47:53;;;;;;;20.63;13.35;;;20.20;99.90;;;;;;5012601;28;20440;-81
2022/08/01 03:50:22;;;;;;;20.25;12.98;;;20.20;99.90;;;;;;5030883;28;20025;-81
2022/08/01 03:52:49;;;;;;;20.75;13.10;;;20.20;99.90;;;;;;5031156;28;20034;-81
2022/08/01 03:55:18;;;;;;;19.48;12.57;;;20.20;99.90;;;;;;5031025;28;20152;-81
2022/08/01 03:57:46;;;;;;;23.15;14.13;;;20.20;99.90;;;;;;5030855;28;20033;-81
2022/08/01 04:00:12;;;;;;;18.33;13.57;;;20.20;99.90;;;;;;5013160;28;20033;-81
2022/08/01 04:02:38;;;;;;;18.70;12.98;;;20.20;99.90;;;;;;5031122;28;20049;-81
2022/08/01 04:05:05;;;;;;;20.73;12.75;;;20.20;99.90;;;;;;5031009;28;20029;-81
2022/08/01 04:07:31;;;;;;;20.85;13.32;;;20.20;99.90;;;;;;5030677;28;20042;-81
2022/08/01 04:09:58;;;;;;;21.63;13.90;;;20.20;99.90;;;;;;5013093;28;20029;-81
2022/08/01 04:12:23;;;;;;;18.45;13.13;;;20.20;99.90;;;;;;5030612;28;20030;-81
2022/08/01 04:14:49;;;;;;;18.75;13.82;;;20.20;99.90;;;;;;5030649;28;20020;-81
2022/08/01 04:17:19;;;;;;;17.20;12.20;;;20.20;99.90;;;;;;5030530;28;20064;-81
2022/08/01 04:19:45;;;;;;;21.38;13.93;;;20.20;99.90;;;;;;5030545;28;20026;-81
2022/08/01 04:22:14;;;;;;;22.20;15.05;;;20.20;99.90;;;;;;5030584;28;20550;-81
2022/08/01 04:24:42;;;;;;;18.40;13.20;;;20.20;99.90;;;;;;5030543;28;20033;-81
2022/08/01 04:27:15;;;;;;;20.98;13.35;;;20.20;99.90;;;;;;5012866;28;20104;-81
2022/08/01 04:29:42;;;;;;;17.27;12.65;;;20.30;99.90;;;;;;4996091;28;20124;-81
2022/08/01 04:32:11;;;;;;;20.23;12.85;;;20.20;99.90;;;;;;5030676;28;20037;-82
2022/08/01 04:34:39;;;;;;;17.80;12.73;;;20.20;99.90;;;;;;5012771;28;20029;-81
2022/08/01 04:37:07;;;;;;;19.77;13.15;;;20.20;99.90;;;;;;5030390;28;20064;-81
2022/08/01 04:39:36;;;;;;;20.88;13.88;;;20.20;99.90;;;;;;5030283;28;20108;-81
2022/08/01 04:42:04;;;;;;;20.75;13.65;;;20.20;99.90;;;;;;5030486;28;20040;-81
2022/08/01 04:44:32;;;;;;;25.30;13.10;;;20.20;99.90;;;;;;5030507;28;20079;-81
2022/08/01 04:47:03;;;;;;;18.75;11.63;;;20.20;99.90;;;;;;5030182;28;20060;-88
2022/08/01 04:49:32;;;;;;;19.25;13.10;;;20.20;99.90;;;;;;5030832;28;20021;-86
2022/08/01 04:51:59;;;;;;;19.10;12.75;;;20.20;99.90;;;;;;4997728;28;20034;-82
2022/08/01 04:54:30;;;;;;;19.58;13.10;;;20.20;99.90;;;;;;5030393;28;20029;-79
2022/08/01 04:57:02;;;;;;;19.20;12.82;;;20.20;99.90;;;;;;5021323;28;20037;-80
2022/08/01 04:59:40;;;;;;;21.65;13.90;;;20.20;99.90;;;;;;5021312;28;20041;-80
2022/08/01 05:02:11;;;;;;;19.80;12.65;;;20.20;99.90;;;;;;5029729;28;20037;-80
2022/08/01 05:04:39;;;;;;;18.02;13.23;;;20.20;99.90;;;;;;5029786;28;20389;-80
2022/08/01 05:07:06;;;;;;;20.30;12.30;;;20.20;99.90;;;;;;5029044;28;20120;-80
2022/08/01 05:09:32;;;;;;;19.73;12.95;;;20.20;99.90;;;;;;5029038;28;20122;-82
2022/08/01 05:12:01;;;;;;;20.90;13.45;;;20.20;99.90;;;;;;5028744;28;20030;-82
2022/08/01 05:14:28;;;;;;;18.83;12.57;;;20.20;99.90;;;;;;5028278;28;20037;-82
2022/08/01 05:16:54;;;;;;;17.90;12.68;;;20.20;99.90;;;;;;5028552;28;20037;-81
2022/08/01 05:19:21;;;;;;;19.15;12.00;;;20.20;99.90;;;;;;5028657;28;20054;-81
2022/08/01 05:21:47;;;;;;;19.05;12.18;;;20.20;99.90;;;;;;5029948;28;20116;-81
2022/08/01 05:24:13;;;;;;;20.95;12.75;;;20.20;99.90;;;;;;5032349;28;20033;-81
2022/08/01 05:26:39;;;;;;;16.77;12.60;;;20.20;99.90;;;;;;5031988;28;20040;-81
2022/08/01 05:29:05;;;;;;;16.88;11.85;;;20.20;99.90;;;;;;5031637;28;20061;-81
2022/08/01 05:31:33;;;;;;;17.75;12.35;;;20.20;99.90;;;;;;5032628;28;20144;-81
2022/08/01 05:34:03;;;;;;;21.40;12.90;;;20.20;99.90;;;;;;5032517;28;20048;-81
2022/08/01 05:36:29;;;;;;;18.08;12.95;;;20.20;99.90;;;;;;5032356;28;20447;-81
2022/08/01 05:38:55;;;;;;;20.02;14.35;;;20.20;99.90;;;;;;5032177;28;20084;-81
2022/08/01 05:41:21;;;;;;;17.02;12.07;;;20.20;99.90;;;;;;5032316;28;20437;-81
2022/08/01 05:43:46;;;;;;;17.92;12.68;;;20.10;99.90;;;;;;5031169;28;20022;-81
2022/08/01 05:46:12;;;;;;;16.92;11.88;;;20.10;99.90;;;;;;5014082;28;20041;-81
2022/08/01 05:48:38;;;;;;;18.88;13.15;;;20.10;99.90;;;;;;5039376;22;20025;-70
2022/08/01 05:51:04;;;;;;;22.45;14.07;;;20.10;99.90;;;;;;5032304;28;20038;-71
2022/08/01 05:53:30;;;;;;;17.70;12.00;;;20.10;99.90;;;;;;5031828;28;20181;-71
2022/08/01 05:55:56;;;;;;;20.00;12.13;;;20.10;99.90;;;;;;5032032;28;20025;-72
2022/08/01 05:58:22;;;;;;;17.30;11.38;;;20.10;99.90;;;;;;5031500;28;20120;-71
2022/08/01 06:00:48;;;;;;;16.10;10.80;;;20.20;99.90;;;;;;5012204;28;20430;-69
2022/08/01 06:03:14;;;;;;;13.15;9.30;;;20.20;99.90;;;;;;5011850;28;20030;-72
2022/08/01 06:05:40;;;;;;;14.57;9.82;;;20.20;99.90;;;;;;5011778;28;20053;-71
2022/08/01 06:08:06;;;;;;;14.50;9.45;;;20.20;99.90;;;;;;5012184;28;20794;-71
2022/08/01 06:10:32;;;;;;;16.50;9.68;;;20.20;99.90;;;;;;4994096;28;20060;-70
2022/08/01 06:12:59;;;;;;;12.82;9.02;;;20.30;99.90;;;;;;5011932;28;20036;-70
2022/08/01 06:15:25;;;;;;;15.32;9.55;;;20.20;99.90;;;;;;5011792;28;20034;-70
2022/08/01 06:17:51;;;;;;;13.90;9.82;;;20.20;99.90;;;;;;5012085;28;20482;-70
2022/08/01 06:20:17;;;;;;;17.13;10.48;;;20.30;99.90;;;;;;4994166;28;20049;-70
2022/08/01 06:22:43;;;;;;;13.43;8.93;;;20.40;99.90;;;;;;5011994;28;20100;-70
2022/08/01 06:25:09;;;;;;;10.40;7.45;;;20.40;99.90;;;;;;5010412;28;20026;-69
2022/08/01 06:27:35;;;;;;;15.98;9.93;;;20.40;99.90;;;;;;5011733;28;20030;-70
2022/08/01 06:30:01;;;;;;;13.07;9.18;;;20.50;99.90;;;;;;5029266;22;20037;-69
2022/08/01 06:32:27;;;;;;;11.30;7.90;;;20.40;99.90;;;;;;5029738;28;20425;-69
2022/08/01 06:34:54;;;;;;;14.90;9.25;;;20.40;99.90;;;;;;5028973;28;20029;-70
2022/08/01 06:37:19;;;;;;;12.07;8.82;;;20.40;99.90;;;;;;5029804;28;20193;-70
2022/08/01 06:39:45;;;;;;;13.48;8.70;;;20.50;99.90;;;;;;5029653;28;20059;-70
2022/08/01 06:42:11;;;;;;;12.93;8.85;;;20.50;99.90;;;;;;5029841;28;20087;-70
2022/08/01 06:44:37;;;;;;;12.55;8.95;;;20.50;99.90;;;;;;5029447;28;20063;-70
2022/08/01 06:47:03;;;;;;;11.80;8.73;;;20.50;99.90;;;;;;5030852;28;20045;-69
2022/08/01 06:49:29;;;;;;;11.10;7.85;;;20.60;99.90;;;;;;5031152;28;20022;-69
2022/08/01 06:51:55;;;;;;;11.98;7.85;;;20.60;99.90;;;;;;5031502;28;20033;-69
2022/08/01 06:54:21;;;;;;;11.25;7.10;;;20.60;99.90;;;;;;5031228;28;20139;-70
2022/08/01 06:56:46;;;;;;;10.10;6.05;;;20.60;99.90;;;;;;5031443;28;20055;-70
2022/08/01 06:59:12;;;;;;;10.05;6.13;;;20.70;99.90;;;;;;5030475;28;20049;-69
2022/08/01 07:01:38;;;;;;;10.43;5.85;;;20.70;99.90;;;;;;5031170;28;20029;-69
2022/08/01 07:04:05;;;;;;;8.35;4.95;;;20.80;99.90;;;;;;5031126;28;20029;-69
2022/08/01 07:06:31;;;;;;;7.85;5.20;;;20.80;99.90;;;;;;5031198;28;20052;-69
2022/08/01 07:08:57;;;;;;;9.02;5.60;;;20.80;99.90;;;;;;5030694;28;20033;-69
2022/08/01 07:11:23;;;;;;;7.00;4.47;;;20.90;99.90;;;;;;5031234;28;20044;-69
2022/08/01 07:13:50;;;;;;;6.43;4.30;;;20.90;99.90;;;;;;5030730;28;20652;-68
2022/08/01 07:16:16;;;;;;;6.28;4.38;;;20.90;99.90;;;;;;5030917;28;20517;-68
2022/08/01 07:18:43;;;;;;;7.57;4.18;;;21.00;99.90;;;;;;5030604;28;20025;-69
2022/08/01 07:21:09;;;;;;;6.22;3.60;;;21.00;99.90;;;;;;5012950;28;20067;-68
2022/08/01 07:23:35;;;;;;;7.38;4.18;;;21.10;99.90;;;;;;5031173;28;20053;-68
2022/08/01 07:26:03;;;;;;;7.05;4.18;;;21.10;99.90;;;;;;5030798;28;20073;-70
2022/08/01 07:28:31;;;;;;;8.60;4.85;;;21.10;99.90;;;;;;5030501;28;20057;-70
2022/08/01 07:30:57;;;;;;;7.20;4.43;;;21.10;99.90;;;;;;5031595;28;20033;-69
2022/08/01 07:33:22;;;;;;;6.68;4.15;;;21.10;99.90;;;;;;5030956;28;20022;-69
2022/08/01 07:35:48;;;;;;;8.85;5.60;;;21.10;99.90;;;;;;5030497;28;20497;-71
2022/08/01 07:38:16;;;;;;;9.35;4.82;;;21.20;99.90;;;;;;5030885;28;20053;-71
2022/08/01 07:40:43;;;;;;;7.53;4.23;;;21.30;99.90;;;;;;5012871;28;20414;-71
2022/08/01 07:43:09;;;;;;;7.53;5.47;;;21.30;99.90;;;;;;5029822;28;20033;-71
2022/08/01 07:45:35;;;;;;;6.07;4.35;;;21.40;99.90;;;;;;5029814;28;20132;-71
2022/08/01 07:48:05;;;;;;;8.13;4.72;;;21.40;99.90;;;;;;5012291;28;20501;-71
2022/08/01 07:50:32;;;;;;;6.78;4.32;;;21.40;99.90;;;;;;5029708;28;20034;-72
2022/08/01 07:52:58;;;;;;;7.80;4.75;;;21.40;99.90;;;;;;5030125;28;20375;-71
2022/08/01 07:55:23;;;;;;;4.97;3.35;;;21.40;99.90;;;;;;5030038;28;20140;-72
2022/08/01 07:57:49;;;;;;;6.03;3.78;;;21.40;99.90;;;;;;5029911;28;20498;-72
2022/08/01 08:00:16;;;;;;;6.90;4.40;;;21.30;99.90;;;;;;5011523;28;20414;-72
2022/08/01 08:02:42;;;;;;;6.00;3.60;;;21.20;99.90;;;;;;5029817;28;20033;-70
2022/08/01 08:05:08;;;;;;;8.13;3.63;;;21.30;99.90;;;;;;5031249;28;20063;-70
2022/08/01 08:07:34;;;;;;;5.63;3.80;;;21.30;99.90;;;;;;5048573;28;20033;-69
2022/08/01 08:10:00;;;;;;;5.90;3.83;;;21.30;99.90;;;;;;5048921;28;20044;-70
2022/08/01 08:12:26;;;;;;;7.97;4.60;;;21.30;99.90;;;;;;5049353;28;20029;-71
2022/08/01 08:14:52;;;;;;;8.98;4.63;;;21.30;99.90;;;;;;5048797;28;20029;-71
2022/08/01 08:17:18;;;;;;;7.03;3.97;;;21.30;99.90;;;;;;5049871;28;20028;-72
2022/08/01 08:19:44;;;;;;;6.97;3.92;;;21.40;99.90;;;;;;5049007;28;20025;-71
2022/08/01 08:22:10;;;;;;;6.18;3.38;;;21.50;99.90;;;;;;5049253;28;20088;-74
2022/08/01 08:24:37;;;;;;;5.88;3.00;;;21.50;99.90;;;;;;5035373;28;20112;-70
2022/08/01 08:27:03;;;;;;;3.90;2.58;;;21.50;99.90;;;;;;5029050;28;20489;-70
2022/08/01 08:29:32;;;;;;;2.80;1.95;;;21.50;99.90;;;;;;5028439;28;20029;-72
2022/08/01 08:31:59;;;;;;;3.13;1.70;;;21.50;99.90;;;;;;5029490;28;20061;-68
2022/08/01 08:34:27;;;;;;;3.72;1.80;;;21.50;99.90;;;;;;5011344;28;20041;-68
2022/08/01 08:36:54;;;;;;;3.72;2.40;;;21.60;99.90;;;;;;5028862;28;20072;-69
2022/08/01 08:39:21;;;;;;;3.50;1.95;;;21.60;99.90;;;;;;5028871;28;20427;-68
2022/08/01 08:41:47;;;;;;;5.28;2.05;;;21.60;99.90;;;;;;5029590;28;20040;-70
2022/08/01 08:44:14;;;;;;;2.88;1.90;;;21.60;99.90;;;;;;5028574;28;20033;-69
2022/08/01 08:46:48;;;;;;;2.85;1.75;;;21.70;99.90;;;;;;5028980;28;20037;-70
2022/08/01 08:49:20;;;;;;;3.15;2.00;;;21.70;99.90;;;;;;5028870;28;20029;-69
2022/08/01 08:51:49;;;;;;;3.85;1.98;;;21.70;99.90;;;;;;5029144;28;20560;-72
2022/08/01 08:54:19;;;;;;;4.03;1.95;;;21.70;99.90;;;;;;5029229;28;20037;-72
2022/08/01 08:56:47;;;;;;;3.03;1.98;;;21.80;99.90;;;;;;5030128;28;20029;-71
2022/08/01 08:59:13;;;;;;;3.47;1.70;;;21.80;99.90;;;;;;5032310;28;20490;-72
2022/08/01 09:01:40;;;;;;;2.78;1.65;;;21.80;99.90;;;;;;5015122;28;20462;-72
2022/08/01 09:04:06;;;;;;;2.63;1.60;;;21.80;99.90;;;;;;5032796;28;20707;-71
2022/08/01 09:06:33;;;;;;;2.88;1.63;;;21.80;99.90;;;;;;5014733;28;20112;-70
2022/08/01 09:08:59;;;;;;;3.70;1.80;;;21.80;99.90;;;;;;5032494;28;20056;-70
2022/08/01 09:11:26;;;;;;;2.55;1.70;;;21.80;99.90;;;;;;5032775;28;20033;-69
2022/08/01 09:14:26;;;;;;;2.83;1.77;;;21.80;99.90;;;;;;5032034;28;20036;-71
2022/08/01 09:17:10;;;;;;;4.88;1.98;;;21.80;99.90;;;;;;5000325;28;20374;-72
2022/08/01 09:19:40;;;;;;;2.85;1.70;;;21.80;99.90;;;;;;5032236;28;20029;-71
2022/08/01 09:22:13;;;;;;;5.70;2.13;;;21.80;99.90;;;;;;5032600;28;20454;-70
2022/08/01 09:24:40;;;;;;;5.88;2.20;;;21.90;99.90;;;;;;5014641;28;20021;-69
2022/08/01 09:27:17;;;;;;;4.15;2.00;;;21.90;99.90;;;;;;5031832;28;20040;-71
2022/08/01 09:29:44;;;;;;;3.88;1.90;;;21.90;99.90;;;;;;5031374;28;20072;-71
2022/08/01 09:32:10;;;;;;;3.58;1.80;;;22.00;99.90;;;;;;5014688;28;20113;-70
2022/08/01 09:34:36;;;;;;;3.15;2.00;;;22.00;99.90;;;;;;5032232;28;20163;-73
2022/08/01 09:37:03;;;;;;;4.47;2.30;;;22.10;99.90;;;;;;5031951;28;20029;-71
2022/08/01 09:39:30;;;;;;;3.85;2.70;;;22.10;99.90;;;;;;5031501;28;20053;-75
2022/08/01 09:41:59;;;;;;;5.15;2.90;;;22.20;99.90;;;;;;5013973;28;20047;-73
2022/08/01 09:44:38;;;;;;;4.35;2.60;;;22.20;99.90;;;;;;5031361;28;20029;-71
2022/08/01 09:47:04;;;;;;;4.85;2.75;;;22.20;99.90;;;;;;5013391;28;20448;-70
2022/08/01 09:49:36;;;;;;;4.82;2.30;;;22.20;99.90;;;;;;5031735;28;20110;-70
2022/08/01 09:52:15;;;;;;;3.15;2.10;;;22.20;99.90;;;;;;5031739;28;20049;-71
2022/08/01 09:54:43;;;;;;;4.38;2.00;;;22.30;99.90;;;;;;5013727;28;20029;-70
2022/08/01 09:57:18;;;;;;;3.30;2.10;;;22.30;99.90;;;;;;5031539;28;20053;-70
2022/08/01 09:59:47;;;;;;;2.85;1.98;;;22.30;99.90;;;;;;5030609;28;20070;-72
2022/08/01 10:02:25;;;;;;;2.22;1.88;;;22.30;99.90;;;;;;5031244;28;20040;-70
2022/08/01 10:04:52;;;;;;;4.28;1.98;;;22.40;99.90;;;;;;5013342;28;20435;-70
2022/08/01 10:07:19;;;;;;;3.00;1.90;;;22.40;99.90;;;;;;5031074;28;20022;-70
2022/08/01 10:09:46;;;;;;;3.65;2.10;;;22.60;99.90;;;;;;5030789;28;20034;-68
2022/08/01 10:12:16;;;;;;;3.03;2.00;;;22.60;99.90;;;;;;5031853;28;20018;-68
2022/08/01 10:14:44;;;;;;;3.55;2.50;;;22.60;99.90;;;;;;5030940;28;20077;-70
2022/08/01 10:17:13;;;;;;;3.20;2.03;;;22.80;99.90;;;;;;5031576;28;20425;-70
2022/08/01 10:19:41;;;;;;;5.72;2.38;;;22.80;99.90;;;;;;5013410;28;20041;-69
2022/08/01 10:22:09;;;;;;;5.68;2.65;;;22.80;99.90;;;;;;5031676;28;20033;-68
2022/08/01 10:24:39;;;;;;;3.05;1.92;;;22.70;99.90;;;;;;5031424;28;20048;-69
2022/08/01 10:27:08;;;;;;;2.97;2.05;;;22.70;99.90;;;;;;5031281;28;20029;-71
2022/08/01 10:29:47;;;;;;;3.08;2.08;;;22.60;99.90;;;;;;5028943;28;20440;-66
2022/08/01 10:32:14;;;;;;;2.92;2.08;;;22.60;99.90;;;;;;5009613;28;20056;-70
2022/08/01 10:34:41;;;;;;;2.53;1.90;;;22.50;99.90;;;;;;5028400;28;20029;-70
2022/08/01 10:37:07;;;;;;;3.92;2.22;;;22.50;99.90;;;;;;5031226;28;20803;-70
2022/08/01 10:39:34;;;;;;;3.20;2.08;;;22.50;99.90;;;;;;5029858;28;20183;-70
2022/08/01 10:42:01;;;;;;;4.20;1.95;;;22.50;99.90;;;;;;5031070;28;20098;-72
2022/08/01 10:44:29;;;;;;;2.45;1.63;;;22.60;99.90;;;;;;5030944;28;20390;-71
2022/08/01 10:47:27;;;;;;;2.63;1.65;;;22.60;99.90;;;;;;5031323;28;20033;-74
2022/08/01 10:50:01;;;;;;;54.25;5.28;;;22.70;99.90;;;;;;5018801;28;20497;-74
2022/08/01 10:52:27;;;;;;;17.45;3.00;;;22.80;99.90;;;;;;5030536;28;20075;-71
2022/08/01 10:55:07;;;;;;;5.85;1.92;;;22.80;99.90;;;;;;5030831;28;20037;-71
2022/08/01 10:57:44;;;;;;;3.28;1.85;;;22.80;99.90;;;;;;5030587;28;20381;-68
2022/08/01 11:00:18;;;;;;;4.47;2.10;;;22.80;99.90;;;;;;5030397;28;20117;-74
2022/08/01 11:03:03;;;;;;;4.65;1.70;;;22.80;99.90;;;;;;5030090;28;20059;-73
2022/08/01 11:05:34;;;;;;;5.80;1.90;;;22.90;99.90;;;;;;5030617;28;20182;-73
2022/08/01 11:08:10;;;;;;;4.10;2.13;;;22.80;99.90;;;;;;5030795;28;20025;-74
2022/08/01 11:10:42;;;;;;;5.95;2.20;;;22.70;99.90;;;;;;5030505;28;20335;-73
2022/08/01 11:13:10;;;;;;;9.68;2.42;;;22.60;99.90;;;;;;5029819;28;20025;-72
2022/08/01 11:15:38;;;;;;;5.22;2.13;;;22.50;99.90;;;;;;5029196;28;20112;-72
2022/08/01 11:18:27;;;;;;;4.85;2.42;;;22.40;99.90;;;;;;4994698;28;20127;-72
2022/08/01 11:20:59;;;;;;;4.07;2.00;;;22.30;99.90;;;;;;5027840;28;20474;-74
2022/08/01 11:23:27;;;;;;;2.20;1.58;;;22.20;99.90;;;;;;5010936;28;20040;-74
2022/08/01 11:25:53;;;;;;;3.78;1.88;;;22.10;99.90;;;;;;5028499;28;20505;-74
2022/08/01 11:28:25;;;;;;;3.45;1.50;;;22.10;99.90;;;;;;5029164;28;20022;-73
2022/08/01 11:31:15;;;;;;;4.35;1.80;;;22.10;99.90;;;;;;5029770;28;20030;-73
2022/08/01 11:33:41;;;;;;;2.92;1.55;;;22.10;99.90;;;;;;5029415;28;20032;-74
2022/08/01 11:36:10;;;;;;;3.35;1.48;;;22.00;99.90;;;;;;5030001;28;20022;-73
2022/08/01 11:38:37;;;;;;;3.03;1.42;;;21.90;99.90;;;;;;5029060;28;20033;-73
2022/08/01 11:41:25;;;;;;;2.97;1.60;;;21.90;99.90;;;;;;5030569;28;20390;-73
2022/08/01 11:44:05;;;;;;;3.03;1.50;;;21.80;99.90;;;;;;5029796;28;20037;-74
2022/08/01 11:46:55;;;;;;;4.15;2.03;;;21.90;99.90;;;;;;5029652;28;20059;-74
2022/08/01 11:49:44;;;;;;;3.05;1.70;;;21.90;99.90;;;;;;5028937;28;20026;-74
2022/08/01 11:52:14;;;;;;;2.58;1.50;;;21.80;99.90;;;;;;5029690;28;20480;-74
2022/08/01 11:54:53;;;;;;;3.67;1.20;;;21.80;99.90;;;;;;5029988;28;20044;-74
2022/08/01 11:57:33;;;;;;;1.83;1.10;;;21.90;99.90;;;;;;5011992;28;20403;-73
2022/08/01 11:59:59;;;;;;;2.42;1.40;;;21.90;99.90;;;;;;5029260;28;20515;-73
2022/08/01 12:02:29;;;;;;;2.03;1.58;;;21.90;99.90;;;;;;5029212;28;20103;-73
2022/08/01 12:05:04;;;;;;;3.10;1.20;;;21.80;99.90;;;;;;5029594;28;20041;-73
2022/08/01 12:07:32;;;;;;;2.63;1.30;;;21.80;99.90;;;;;;5029200;28;20493;-73
2022/08/01 12:10:05;;;;;;;2.53;1.40;;;21.90;99.90;;;;;;5022105;28;20482;-73
2022/08/01 12:12:33;;;;;;;2.30;1.27;;;22.00;99.90;;;;;;5027944;28;20041;-73
2022/08/01 12:15:04;;;;;;;3.10;1.50;;;22.00;99.90;;;;;;5011917;28;20021;-73
2022/08/01 12:17:36;;;;;;;2.20;1.52;;;22.00;99.90;;;;;;5025968;28;20065;-73
2022/08/01 12:20:11;;;;;;;2.20;1.50;;;22.00;99.90;;;;;;5014281;28;20022;-72
2022/08/01 12:22:37;;;;;;;2.65;1.60;;;22.00;99.90;;;;;;5029299;28;20140;-72
2022/08/01 12:25:13;;;;;;;6.13;1.80;;;22.10;99.90;;;;;;5029438;28;20096;-73
2022/08/01 12:27:41;;;;;;;6.13;2.20;;;22.20;99.90;;;;;;5029087;28;20088;-73
2022/08/01 12:30:10;;;;;;;4.00;1.88;;;22.10;99.90;;;;;;5054525;22;20400;-85
2022/08/01 12:32:38;;;;;;;2.75;1.70;;;22.00;99.90;;;;;;4991618;28;20544;-83
2022/08/01 12:35:11;;;;;;;4.03;2.00;;;22.00;99.90;;;;;;5013927;28;20026;-83
2022/08/01 12:37:39;;;;;;;2.08;1.67;;;22.00;99.90;;;;;;5013303;28;20032;-83
2022/08/01 12:40:14;;;;;;;3.38;1.63;;;22.10;99.90;;;;;;5013575;28;20104;-85
2022/08/01 12:42:42;;;;;;;4.68;2.10;;;22.10;99.90;;;;;;5033041;28;20124;-84
2022/08/01 12:45:09;;;;;;;3.38;1.67;;;22.10;99.90;;;;;;5032891;28;20418;-84
2022/08/01 12:47:38;;;;;;;2.20;1.58;;;22.10;99.90;;;;;;5031706;28;20077;-83
2022/08/01 12:50:07;;;;;;;3.25;1.65;;;22.10;99.90;;;;;;5032581;28;20285;-83